sensor_id;sensor_type;location;lat;lon;timestamp;P1;durP1;ratioP1;P2;durP2;ratioP2
18879;SDS011;9572;52.378;13.404;2023-12-14T00:01:34;17.60;;;9.57;;
18879;SDS011;9572;52.378;13.404;2023-12-14T00:04:01;13.50;;;8.37;;
18879;SDS011;9572;52.378;13.404;2023-12-14T00:06:30;14.90;;;8.87;;
18879;SDS011;9572;52.378;13.404;2023-12-14T00:08:57;17.37;;;8.80;;
18879;SDS011;9572;52.378;13.404;2023-12-14T00:11:25;18.73;;;9.77;;
18879;SDS011;9572;52.378;13.404;2023-12-14T00:16:53;13.40;;;8.23;;
18879;SDS011;9572;52.378;13.404;2023-12-14T00:19:20;20.47;;;9.87;;
18879;SDS011;9572;52.378;13.404;2023-12-14T00:21:50;18.57;;;9.70;;
18879;SDS011;9572;52.378;13.404;2023-12-14T00:24:17;17.57;;;9.27;;
18879;SDS011;9572;52.378;13.404;2023-12-14T00:26:45;21.10;;;11.10;;
18879;SDS011;9572;52.378;13.404;2023-12-14T00:29:12;24.43;;;11.03;;
18879;SDS011;9572;52.378;13.404;2023-12-14T00:31:39;19.53;;;9.97;;
18879;SDS011;9572;52.378;13.404;2023-12-14T00:34:06;30.30;;;12.70;;
18879;SDS011;9572;52.378;13.404;2023-12-14T00:36:33;23.60;;;11.47;;
18879;SDS011;9572;52.378;13.404;2023-12-14T00:39:00;17.70;;;10.13;;
18879;SDS011;9572;52.378;13.404;2023-12-14T00:41:27;17.30;;;10.50;;
18879;SDS011;9572;52.378;13.404;2023-12-14T00:43:55;17.23;;;10.17;;
18879;SDS011;9572;52.378;13.404;2023-12-14T00:46:22;18.10;;;10.57;;
18879;SDS011;9572;52.378;13.404;2023-12-14T00:48:48;18.70;;;10.20;;
18879;SDS011;9572;52.378;13.404;2023-12-14T00:51:15;20.73;;;11.23;;
18879;SDS011;9572;52.378;13.404;2023-12-14T00:53:43;20.80;;;10.40;;
18879;SDS011;9572;52.378;13.404;2023-12-14T00:56:10;19.07;;;10.23;;
18879;SDS011;9572;52.378;13.404;2023-12-14T00:58:37;20.30;;;10.73;;
18879;SDS011;9572;52.378;13.404;2023-12-14T01:04:19;24.30;;;11.90;;
18879;SDS011;9572;52.378;13.404;2023-12-14T01:06:46;25.50;;;12.43;;
18879;SDS011;9572;52.378;13.404;2023-12-14T01:09:13;23.27;;;12.23;;
18879;SDS011;9572;52.378;13.404;2023-12-14T01:11:40;26.50;;;12.10;;
18879;SDS011;9572;52.378;13.404;2023-12-14T01:14:07;23.70;;;11.50;;
18879;SDS011;9572;52.378;13.404;2023-12-14T01:16:35;26.90;;;12.67;;
18879;SDS011;9572;52.378;13.404;2023-12-14T01:19:03;24.60;;;11.80;;
18879;SDS011;9572;52.378;13.404;2023-12-14T01:21:30;27.33;;;12.77;;
18879;SDS011;9572;52.378;13.404;2023-12-14T01:23:58;30.87;;;12.50;;
18879;SDS011;9572;52.378;13.404;2023-12-14T01:26:25;28.93;;;12.57;;
18879;SDS011;9572;52.378;13.404;2023-12-14T01:28:52;26.53;;;11.53;;
18879;SDS011;9572;52.378;13.404;2023-12-14T01:31:19;30.53;;;12.17;;
18879;SDS011;9572;52.378;13.404;2023-12-14T01:33:49;23.23;;;12.20;;
18879;SDS011;9572;52.378;13.404;2023-12-14T01:36:19;34.80;;;12.47;;
18879;SDS011;9572;52.378;13.404;2023-12-14T01:38:47;28.13;;;12.23;;
18879;SDS011;9572;52.378;13.404;2023-12-14T01:41:14;27.53;;;13.00;;
18879;SDS011;9572;52.378;13.404;2023-12-14T01:43:40;31.03;;;13.13;;
18879;SDS011;9572;52.378;13.404;2023-12-14T01:46:08;31.30;;;12.60;;
18879;SDS011;9572;52.378;13.404;2023-12-14T01:48:35;22.00;;;11.27;;
18879;SDS011;9572;52.378;13.404;2023-12-14T01:51:04;26.73;;;11.13;;
18879;SDS011;9572;52.378;13.404;2023-12-14T01:53:31;24.43;;;12.27;;
18879;SDS011;9572;52.378;13.404;2023-12-14T01:55:57;23.43;;;10.90;;
18879;SDS011;9572;52.378;13.404;2023-12-14T01:58:24;23.17;;;11.33;;
18879;SDS011;9572;52.378;13.404;2023-12-14T02:00:53;22.30;;;10.97;;
18879;SDS011;9572;52.378;13.404;2023-12-14T02:03:25;22.10;;;10.90;;
18879;SDS011;9572;52.378;13.404;2023-12-14T02:05:51;21.20;;;10.37;;
18879;SDS011;9572;52.378;13.404;2023-12-14T02:08:20;19.57;;;10.03;;
18879;SDS011;9572;52.378;13.404;2023-12-14T02:10:47;21.67;;;9.53;;
18879;SDS011;9572;52.378;13.404;2023-12-14T02:13:14;19.43;;;10.07;;
18879;SDS011;9572;52.378;13.404;2023-12-14T02:15:40;16.00;;;8.87;;
18879;SDS011;9572;52.378;13.404;2023-12-14T02:18:07;18.00;;;9.20;;
18879;SDS011;9572;52.378;13.404;2023-12-14T02:20:34;18.73;;;8.63;;
18879;SDS011;9572;52.378;13.404;2023-12-14T02:23:03;17.13;;;8.83;;
18879;SDS011;9572;52.378;13.404;2023-12-14T02:25:29;19.53;;;9.83;;
18879;SDS011;9572;52.378;13.404;2023-12-14T02:27:56;17.33;;;8.60;;
18879;SDS011;9572;52.378;13.404;2023-12-14T02:30:23;16.97;;;8.83;;
18879;SDS011;9572;52.378;13.404;2023-12-14T02:32:50;15.73;;;8.67;;
18879;SDS011;9572;52.378;13.404;2023-12-14T02:35:17;15.57;;;8.57;;
18879;SDS011;9572;52.378;13.404;2023-12-14T02:37:44;15.93;;;8.67;;
18879;SDS011;9572;52.378;13.404;2023-12-14T02:40:12;16.90;;;8.50;;
18879;SDS011;9572;52.378;13.404;2023-12-14T02:42:39;15.07;;;8.47;;
18879;SDS011;9572;52.378;13.404;2023-12-14T02:45:07;19.97;;;9.10;;
18879;SDS011;9572;52.378;13.404;2023-12-14T02:47:35;18.87;;;8.53;;
18879;SDS011;9572;52.378;13.404;2023-12-14T02:50:02;14.97;;;8.13;;
18879;SDS011;9572;52.378;13.404;2023-12-14T02:52:29;15.33;;;8.17;;
18879;SDS011;9572;52.378;13.404;2023-12-14T02:54:56;14.43;;;8.17;;
18879;SDS011;9572;52.378;13.404;2023-12-14T02:57:24;15.30;;;8.73;;
18879;SDS011;9572;52.378;13.404;2023-12-14T02:59:51;16.77;;;8.63;;
18879;SDS011;9572;52.378;13.404;2023-12-14T03:02:18;16.37;;;8.27;;
18879;SDS011;9572;52.378;13.404;2023-12-14T03:04:45;13.80;;;7.57;;
18879;SDS011;9572;52.378;13.404;2023-12-14T03:07:12;15.83;;;8.80;;
18879;SDS011;9572;52.378;13.404;2023-12-14T03:09:39;14.63;;;8.37;;
18879;SDS011;9572;52.378;13.404;2023-12-14T03:12:09;15.83;;;8.13;;
18879;SDS011;9572;52.378;13.404;2023-12-14T03:14:37;13.03;;;7.17;;
18879;SDS011;9572;52.378;13.404;2023-12-14T03:17:06;15.57;;;8.10;;
18879;SDS011;9572;52.378;13.404;2023-12-14T03:19:37;19.37;;;8.00;;
18879;SDS011;9572;52.378;13.404;2023-12-14T03:22:04;14.07;;;7.67;;
18879;SDS011;9572;52.378;13.404;2023-12-14T03:24:31;11.10;;;6.97;;
18879;SDS011;9572;52.378;13.404;2023-12-14T03:26:58;13.50;;;6.83;;
18879;SDS011;9572;52.378;13.404;2023-12-14T03:29:26;14.30;;;6.83;;
18879;SDS011;9572;52.378;13.404;2023-12-14T03:31:54;12.03;;;7.10;;
18879;SDS011;9572;52.378;13.404;2023-12-14T03:34:21;13.10;;;7.50;;
18879;SDS011;9572;52.378;13.404;2023-12-14T03:36:49;15.00;;;7.60;;
18879;SDS011;9572;52.378;13.404;2023-12-14T03:39:16;16.73;;;7.93;;
18879;SDS011;9572;52.378;13.404;2023-12-14T03:41:43;13.73;;;7.77;;
18879;SDS011;9572;52.378;13.404;2023-12-14T03:44:10;18.47;;;8.60;;
18879;SDS011;9572;52.378;13.404;2023-12-14T03:46:37;16.60;;;8.17;;
18879;SDS011;9572;52.378;13.404;2023-12-14T03:49:05;16.83;;;8.30;;
18879;SDS011;9572;52.378;13.404;2023-12-14T03:51:32;16.20;;;8.47;;
18879;SDS011;9572;52.378;13.404;2023-12-14T03:53:59;16.07;;;8.43;;
18879;SDS011;9572;52.378;13.404;2023-12-14T03:56:26;13.97;;;7.80;;
18879;SDS011;9572;52.378;13.404;2023-12-14T03:58:53;17.27;;;8.83;;
18879;SDS011;9572;52.378;13.404;2023-12-14T04:01:22;20.13;;;9.17;;
18879;SDS011;9572;52.378;13.404;2023-12-14T04:03:49;17.97;;;9.00;;
18879;SDS011;9572;52.378;13.404;2023-12-14T04:06:17;18.10;;;9.60;;
18879;SDS011;9572;52.378;13.404;2023-12-14T04:08:44;19.87;;;9.33;;
18879;SDS011;9572;52.378;13.404;2023-12-14T04:11:11;18.67;;;9.00;;
18879;SDS011;9572;52.378;13.404;2023-12-14T04:13:38;19.17;;;8.70;;
18879;SDS011;9572;52.378;13.404;2023-12-14T04:16:05;18.63;;;8.80;;
18879;SDS011;9572;52.378;13.404;2023-12-14T04:18:33;17.93;;;9.10;;
18879;SDS011;9572;52.378;13.404;2023-12-14T04:20:59;21.77;;;9.37;;
18879;SDS011;9572;52.378;13.404;2023-12-14T04:23:28;24.37;;;9.07;;
18879;SDS011;9572;52.378;13.404;2023-12-14T04:25:55;19.40;;;9.37;;
18879;SDS011;9572;52.378;13.404;2023-12-14T04:28:21;18.07;;;8.90;;
18879;SDS011;9572;52.378;13.404;2023-12-14T04:30:48;19.80;;;9.00;;
18879;SDS011;9572;52.378;13.404;2023-12-14T04:33:15;19.77;;;8.67;;
18879;SDS011;9572;52.378;13.404;2023-12-14T04:35:42;20.10;;;9.27;;
18879;SDS011;9572;52.378;13.404;2023-12-14T04:38:09;19.67;;;8.43;;
18879;SDS011;9572;52.378;13.404;2023-12-14T04:40:37;23.27;;;8.90;;
18879;SDS011;9572;52.378;13.404;2023-12-14T04:43:04;19.03;;;8.43;;
18879;SDS011;9572;52.378;13.404;2023-12-14T04:45:31;16.07;;;8.17;;
18879;SDS011;9572;52.378;13.404;2023-12-14T04:47:58;19.97;;;8.90;;
18879;SDS011;9572;52.378;13.404;2023-12-14T04:50:25;18.17;;;9.23;;
18879;SDS011;9572;52.378;13.404;2023-12-14T04:52:52;19.20;;;8.47;;
18879;SDS011;9572;52.378;13.404;2023-12-14T04:55:19;19.60;;;8.43;;
18879;SDS011;9572;52.378;13.404;2023-12-14T04:57:47;21.37;;;8.40;;
18879;SDS011;9572;52.378;13.404;2023-12-14T05:00:15;16.37;;;8.03;;
18879;SDS011;9572;52.378;13.404;2023-12-14T05:02:45;15.63;;;8.17;;
18879;SDS011;9572;52.378;13.404;2023-12-14T05:05:14;16.97;;;8.03;;
18879;SDS011;9572;52.378;13.404;2023-12-14T05:07:56;15.93;;;7.33;;
18879;SDS011;9572;52.378;13.404;2023-12-14T05:16:20;15.03;;;7.00;;
18879;SDS011;9572;52.378;13.404;2023-12-14T05:18:47;17.83;;;7.97;;
18879;SDS011;9572;52.378;13.404;2023-12-14T05:21:16;14.87;;;8.03;;
18879;SDS011;9572;52.378;13.404;2023-12-14T05:23:43;15.03;;;6.80;;
18879;SDS011;9572;52.378;13.404;2023-12-14T05:26:10;15.20;;;7.80;;
18879;SDS011;9572;52.378;13.404;2023-12-14T05:28:37;16.97;;;7.43;;
18879;SDS011;9572;52.378;13.404;2023-12-14T05:31:06;16.00;;;7.20;;
18879;SDS011;9572;52.378;13.404;2023-12-14T05:33:36;13.30;;;6.80;;
18879;SDS011;9572;52.378;13.404;2023-12-14T05:36:03;12.83;;;7.20;;
18879;SDS011;9572;52.378;13.404;2023-12-14T05:38:34;17.53;;;7.37;;
18879;SDS011;9572;52.378;13.404;2023-12-14T05:41:01;12.67;;;6.90;;
18879;SDS011;9572;52.378;13.404;2023-12-14T05:43:28;15.27;;;7.33;;
18879;SDS011;9572;52.378;13.404;2023-12-14T05:45:55;12.30;;;7.17;;
18879;SDS011;9572;52.378;13.404;2023-12-14T05:48:24;13.97;;;7.30;;
18879;SDS011;9572;52.378;13.404;2023-12-14T05:50:51;12.60;;;7.27;;
18879;SDS011;9572;52.378;13.404;2023-12-14T05:53:18;14.13;;;7.17;;
18879;SDS011;9572;52.378;13.404;2023-12-14T05:55:46;12.77;;;6.50;;
18879;SDS011;9572;52.378;13.404;2023-12-14T05:58:13;17.30;;;7.23;;
18879;SDS011;9572;52.378;13.404;2023-12-14T06:00:40;12.97;;;7.10;;
18879;SDS011;9572;52.378;13.404;2023-12-14T06:03:07;13.80;;;7.67;;
18879;SDS011;9572;52.378;13.404;2023-12-14T06:05:35;13.53;;;7.07;;
18879;SDS011;9572;52.378;13.404;2023-12-14T06:08:02;12.57;;;7.03;;
18879;SDS011;9572;52.378;13.404;2023-12-14T06:10:29;10.80;;;6.67;;
18879;SDS011;9572;52.378;13.404;2023-12-14T06:12:57;10.87;;;6.37;;
18879;SDS011;9572;52.378;13.404;2023-12-14T06:15:24;11.57;;;6.73;;
18879;SDS011;9572;52.378;13.404;2023-12-14T06:17:51;12.23;;;6.57;;
18879;SDS011;9572;52.378;13.404;2023-12-14T06:20:18;12.60;;;5.93;;
18879;SDS011;9572;52.378;13.404;2023-12-14T06:22:46;9.63;;;6.40;;
18879;SDS011;9572;52.378;13.404;2023-12-14T06:25:13;15.07;;;6.70;;
18879;SDS011;9572;52.378;13.404;2023-12-14T06:27:41;9.60;;;5.90;;
18879;SDS011;9572;52.378;13.404;2023-12-14T06:30:08;12.13;;;6.30;;
18879;SDS011;9572;52.378;13.404;2023-12-14T06:32:36;9.77;;;6.23;;
18879;SDS011;9572;52.378;13.404;2023-12-14T06:35:04;10.57;;;6.27;;
18879;SDS011;9572;52.378;13.404;2023-12-14T06:37:31;12.80;;;6.63;;
18879;SDS011;9572;52.378;13.404;2023-12-14T06:40:01;8.97;;;5.87;;
18879;SDS011;9572;52.378;13.404;2023-12-14T06:42:28;10.83;;;6.23;;
18879;SDS011;9572;52.378;13.404;2023-12-14T06:44:55;8.63;;;6.00;;
18879;SDS011;9572;52.378;13.404;2023-12-14T06:47:22;12.63;;;7.20;;
18879;SDS011;9572;52.378;13.404;2023-12-14T06:49:49;10.23;;;6.80;;
18879;SDS011;9572;52.378;13.404;2023-12-14T06:52:16;10.43;;;6.90;;
18879;SDS011;9572;52.378;13.404;2023-12-14T06:54:43;11.63;;;6.57;;
18879;SDS011;9572;52.378;13.404;2023-12-14T06:57:12;9.17;;;6.30;;
18879;SDS011;9572;52.378;13.404;2023-12-14T06:59:39;12.03;;;6.73;;
18879;SDS011;9572;52.378;13.404;2023-12-14T07:02:06;11.13;;;7.00;;
18879;SDS011;9572;52.378;13.404;2023-12-14T07:04:33;10.50;;;6.97;;
18879;SDS011;9572;52.378;13.404;2023-12-14T07:06:59;12.50;;;6.47;;
18879;SDS011;9572;52.378;13.404;2023-12-14T07:09:27;10.97;;;5.97;;
18879;SDS011;9572;52.378;13.404;2023-12-14T07:11:54;8.73;;;5.90;;
18879;SDS011;9572;52.378;13.404;2023-12-14T07:14:22;8.60;;;5.73;;
18879;SDS011;9572;52.378;13.404;2023-12-14T07:16:49;10.00;;;6.23;;
18879;SDS011;9572;52.378;13.404;2023-12-14T07:19:16;9.60;;;6.00;;
18879;SDS011;9572;52.378;13.404;2023-12-14T07:21:43;11.60;;;6.73;;
18879;SDS011;9572;52.378;13.404;2023-12-14T07:24:10;10.07;;;6.93;;
18879;SDS011;9572;52.378;13.404;2023-12-14T07:26:37;10.90;;;6.30;;
18879;SDS011;9572;52.378;13.404;2023-12-14T07:29:04;8.17;;;5.77;;
18879;SDS011;9572;52.378;13.404;2023-12-14T07:31:32;9.73;;;5.73;;
18879;SDS011;9572;52.378;13.404;2023-12-14T07:33:59;9.37;;;6.33;;
18879;SDS011;9572;52.378;13.404;2023-12-14T07:36:28;8.97;;;5.73;;
18879;SDS011;9572;52.378;13.404;2023-12-14T07:38:55;9.33;;;6.30;;
18879;SDS011;9572;52.378;13.404;2023-12-14T07:41:22;8.87;;;6.17;;
18879;SDS011;9572;52.378;13.404;2023-12-14T07:43:52;9.70;;;6.53;;
18879;SDS011;9572;52.378;13.404;2023-12-14T07:46:19;9.90;;;6.10;;
18879;SDS011;9572;52.378;13.404;2023-12-14T07:48:48;10.23;;;6.23;;
18879;SDS011;9572;52.378;13.404;2023-12-14T07:51:15;10.60;;;6.57;;
18879;SDS011;9572;52.378;13.404;2023-12-14T07:53:42;12.17;;;6.70;;
18879;SDS011;9572;52.378;13.404;2023-12-14T07:56:11;11.83;;;7.60;;
18879;SDS011;9572;52.378;13.404;2023-12-14T07:58:38;11.57;;;7.30;;
18879;SDS011;9572;52.378;13.404;2023-12-14T08:01:09;13.43;;;7.43;;
18879;SDS011;9572;52.378;13.404;2023-12-14T08:03:40;15.37;;;7.60;;
18879;SDS011;9572;52.378;13.404;2023-12-14T08:06:16;12.73;;;7.70;;
18879;SDS011;9572;52.378;13.404;2023-12-14T08:08:43;14.20;;;8.43;;
18879;SDS011;9572;52.378;13.404;2023-12-14T08:11:10;15.87;;;7.97;;
18879;SDS011;9572;52.378;13.404;2023-12-14T08:13:37;15.03;;;8.83;;
18879;SDS011;9572;52.378;13.404;2023-12-14T08:16:09;13.63;;;8.30;;
18879;SDS011;9572;52.378;13.404;2023-12-14T08:18:40;12.40;;;7.50;;
18879;SDS011;9572;52.378;13.404;2023-12-14T08:21:14;15.93;;;8.37;;
18879;SDS011;9572;52.378;13.404;2023-12-14T08:23:41;16.87;;;8.53;;
18879;SDS011;9572;52.378;13.404;2023-12-14T08:26:09;14.37;;;9.27;;
18879;SDS011;9572;52.378;13.404;2023-12-14T08:28:40;17.10;;;9.20;;
18879;SDS011;9572;52.378;13.404;2023-12-14T08:31:09;16.20;;;9.10;;
18879;SDS011;9572;52.378;13.404;2023-12-14T08:33:40;16.17;;;9.17;;
18879;SDS011;9572;52.378;13.404;2023-12-14T08:36:08;20.93;;;11.30;;
18879;SDS011;9572;52.378;13.404;2023-12-14T08:38:36;21.87;;;12.20;;
18879;SDS011;9572;52.378;13.404;2023-12-14T08:41:03;23.33;;;12.23;;
18879;SDS011;9572;52.378;13.404;2023-12-14T08:43:31;16.40;;;8.80;;
18879;SDS011;9572;52.378;13.404;2023-12-14T08:45:58;13.97;;;8.57;;
18879;SDS011;9572;52.378;13.404;2023-12-14T08:48:25;14.53;;;9.10;;
18879;SDS011;9572;52.378;13.404;2023-12-14T08:50:53;12.80;;;8.33;;
18879;SDS011;9572;52.378;13.404;2023-12-14T08:53:20;14.23;;;8.83;;
18879;SDS011;9572;52.378;13.404;2023-12-14T08:55:48;13.83;;;8.67;;
18879;SDS011;9572;52.378;13.404;2023-12-14T08:58:15;14.40;;;8.53;;
18879;SDS011;9572;52.378;13.404;2023-12-14T09:00:42;13.47;;;8.47;;
18879;SDS011;9572;52.378;13.404;2023-12-14T09:03:09;13.20;;;8.57;;
18879;SDS011;9572;52.378;13.404;2023-12-14T09:05:36;13.63;;;8.27;;
18879;SDS011;9572;52.378;13.404;2023-12-14T09:08:07;15.97;;;8.87;;
18879;SDS011;9572;52.378;13.404;2023-12-14T09:10:34;15.83;;;9.43;;
18879;SDS011;9572;52.378;13.404;2023-12-14T09:13:02;14.63;;;9.07;;
18879;SDS011;9572;52.378;13.404;2023-12-14T09:15:29;14.47;;;8.87;;
18879;SDS011;9572;52.378;13.404;2023-12-14T09:17:56;17.10;;;10.37;;
18879;SDS011;9572;52.378;13.404;2023-12-14T09:20:23;27.20;;;14.60;;
18879;SDS011;9572;52.378;13.404;2023-12-14T09:22:51;17.33;;;10.83;;
18879;SDS011;9572;52.378;13.404;2023-12-14T09:25:18;13.70;;;8.80;;
18879;SDS011;9572;52.378;13.404;2023-12-14T09:27:45;15.47;;;9.70;;
18879;SDS011;9572;52.378;13.404;2023-12-14T09:30:14;14.53;;;8.97;;
18879;SDS011;9572;52.378;13.404;2023-12-14T09:32:42;16.57;;;9.43;;
18879;SDS011;9572;52.378;13.404;2023-12-14T09:35:09;18.07;;;10.87;;
18879;SDS011;9572;52.378;13.404;2023-12-14T09:37:36;20.33;;;11.00;;
18879;SDS011;9572;52.378;13.404;2023-12-14T09:40:03;17.67;;;10.97;;
18879;SDS011;9572;52.378;13.404;2023-12-14T09:42:35;16.63;;;10.73;;
18879;SDS011;9572;52.378;13.404;2023-12-14T09:45:03;17.63;;;11.00;;
18879;SDS011;9572;52.378;13.404;2023-12-14T09:47:34;16.00;;;10.20;;
18879;SDS011;9572;52.378;13.404;2023-12-14T09:50:01;19.97;;;10.97;;
18879;SDS011;9572;52.378;13.404;2023-12-14T09:52:29;20.17;;;10.87;;
18879;SDS011;9572;52.378;13.404;2023-12-14T09:54:57;18.83;;;10.37;;
18879;SDS011;9572;52.378;13.404;2023-12-14T09:57:24;17.67;;;10.40;;
18879;SDS011;9572;52.378;13.404;2023-12-14T09:59:51;17.50;;;10.53;;
18879;SDS011;9572;52.378;13.404;2023-12-14T10:02:19;18.23;;;10.70;;
18879;SDS011;9572;52.378;13.404;2023-12-14T10:04:52;18.80;;;10.70;;
18879;SDS011;9572;52.378;13.404;2023-12-14T10:07:19;17.77;;;10.33;;
18879;SDS011;9572;52.378;13.404;2023-12-14T10:09:47;16.93;;;9.73;;
18879;SDS011;9572;52.378;13.404;2023-12-14T10:12:15;15.60;;;9.80;;
18879;SDS011;9572;52.378;13.404;2023-12-14T10:14:42;17.90;;;10.50;;
18879;SDS011;9572;52.378;13.404;2023-12-14T10:20:08;13.77;;;8.80;;
18879;SDS011;9572;52.378;13.404;2023-12-14T10:22:39;16.80;;;10.33;;
18879;SDS011;9572;52.378;13.404;2023-12-14T10:25:07;14.90;;;9.83;;
18879;SDS011;9572;52.378;13.404;2023-12-14T10:27:37;17.63;;;10.10;;
18879;SDS011;9572;52.378;13.404;2023-12-14T10:30:05;22.93;;;10.57;;
18879;SDS011;9572;52.378;13.404;2023-12-14T10:32:32;16.47;;;9.83;;
18879;SDS011;9572;52.378;13.404;2023-12-14T10:35:00;15.53;;;8.97;;
18879;SDS011;9572;52.378;13.404;2023-12-14T10:37:28;16.93;;;9.37;;
18879;SDS011;9572;52.378;13.404;2023-12-14T10:39:58;16.03;;;9.13;;
18879;SDS011;9572;52.378;13.404;2023-12-14T10:42:30;14.53;;;9.10;;
18879;SDS011;9572;52.378;13.404;2023-12-14T10:45:02;15.10;;;9.57;;
18879;SDS011;9572;52.378;13.404;2023-12-14T10:47:30;14.47;;;9.30;;
18879;SDS011;9572;52.378;13.404;2023-12-14T10:49:58;18.37;;;10.17;;
18879;SDS011;9572;52.378;13.404;2023-12-14T10:52:29;17.17;;;10.13;;
18879;SDS011;9572;52.378;13.404;2023-12-14T10:55:00;12.80;;;8.97;;
18879;SDS011;9572;52.378;13.404;2023-12-14T10:57:31;16.20;;;8.97;;
18879;SDS011;9572;52.378;13.404;2023-12-14T11:00:00;14.90;;;8.93;;
18879;SDS011;9572;52.378;13.404;2023-12-14T11:02:29;13.10;;;8.53;;
18879;SDS011;9572;52.378;13.404;2023-12-14T11:05:03;13.48;;;9.55;;
18879;SDS011;9572;52.378;13.404;2023-12-14T11:07:45;14.33;;;8.87;;
18879;SDS011;9572;52.378;13.404;2023-12-14T11:10:14;13.60;;;8.47;;
18879;SDS011;9572;52.378;13.404;2023-12-14T11:12:51;15.30;;;9.23;;
18879;SDS011;9572;52.378;13.404;2023-12-14T11:15:21;14.00;;;8.50;;
18879;SDS011;9572;52.378;13.404;2023-12-14T11:20:50;12.30;;;7.70;;
18879;SDS011;9572;52.378;13.404;2023-12-14T11:23:27;12.60;;;8.03;;
18879;SDS011;9572;52.378;13.404;2023-12-14T11:25:57;12.73;;;8.00;;
18879;SDS011;9572;52.378;13.404;2023-12-14T11:28:25;12.73;;;8.23;;
18879;SDS011;9572;52.378;13.404;2023-12-14T11:30:52;11.33;;;7.80;;
18879;SDS011;9572;52.378;13.404;2023-12-14T11:33:19;13.53;;;8.57;;
18879;SDS011;9572;52.378;13.404;2023-12-14T11:35:46;18.10;;;9.67;;
18879;SDS011;9572;52.378;13.404;2023-12-14T11:38:12;19.07;;;9.43;;
18879;SDS011;9572;52.378;13.404;2023-12-14T11:40:41;15.47;;;9.10;;
18879;SDS011;9572;52.378;13.404;2023-12-14T11:43:08;14.90;;;9.57;;
18879;SDS011;9572;52.378;13.404;2023-12-14T11:45:35;14.03;;;8.67;;
18879;SDS011;9572;52.378;13.404;2023-12-14T11:48:03;13.07;;;8.37;;
18879;SDS011;9572;52.378;13.404;2023-12-14T11:50:31;14.40;;;9.27;;
18879;SDS011;9572;52.378;13.404;2023-12-14T11:52:58;16.10;;;9.07;;
18879;SDS011;9572;52.378;13.404;2023-12-14T11:55:26;15.07;;;8.80;;
18879;SDS011;9572;52.378;13.404;2023-12-14T11:57:55;12.47;;;8.13;;
18879;SDS011;9572;52.378;13.404;2023-12-14T12:00:24;15.20;;;8.80;;
18879;SDS011;9572;52.378;13.404;2023-12-14T12:03:06;14.33;;;8.93;;
18879;SDS011;9572;52.378;13.404;2023-12-14T12:05:37;15.53;;;9.20;;
18879;SDS011;9572;52.378;13.404;2023-12-14T12:08:05;17.70;;;9.77;;
18879;SDS011;9572;52.378;13.404;2023-12-14T12:10:33;13.23;;;8.60;;
18879;SDS011;9572;52.378;13.404;2023-12-14T12:13:06;20.70;;;11.07;;
18879;SDS011;9572;52.378;13.404;2023-12-14T12:15:34;17.33;;;10.23;;
18879;SDS011;9572;52.378;13.404;2023-12-14T12:18:02;16.57;;;10.47;;
18879;SDS011;9572;52.378;13.404;2023-12-14T12:20:32;20.30;;;11.47;;
18879;SDS011;9572;52.378;13.404;2023-12-14T12:22:59;17.63;;;11.07;;
18879;SDS011;9572;52.378;13.404;2023-12-14T12:25:26;17.47;;;11.03;;
18879;SDS011;9572;52.378;13.404;2023-12-14T12:27:53;18.43;;;10.83;;
18879;SDS011;9572;52.378;13.404;2023-12-14T12:30:23;20.03;;;10.83;;
18879;SDS011;9572;52.378;13.404;2023-12-14T12:32:50;18.27;;;10.40;;
18879;SDS011;9572;52.378;13.404;2023-12-14T12:35:17;21.07;;;12.00;;
18879;SDS011;9572;52.378;13.404;2023-12-14T12:37:44;21.53;;;12.37;;
18879;SDS011;9572;52.378;13.404;2023-12-14T12:40:11;19.53;;;10.73;;
18879;SDS011;9572;52.378;13.404;2023-12-14T12:42:41;17.77;;;10.80;;
18879;SDS011;9572;52.378;13.404;2023-12-14T12:45:08;17.90;;;10.67;;
18879;SDS011;9572;52.378;13.404;2023-12-14T12:47:37;19.43;;;11.43;;
18879;SDS011;9572;52.378;13.404;2023-12-14T12:50:04;20.10;;;11.00;;
18879;SDS011;9572;52.378;13.404;2023-12-14T12:52:32;21.93;;;12.20;;
18879;SDS011;9572;52.378;13.404;2023-12-14T12:54:59;21.07;;;11.37;;
18879;SDS011;9572;52.378;13.404;2023-12-14T12:57:27;15.77;;;10.17;;
18879;SDS011;9572;52.378;13.404;2023-12-14T12:59:53;21.80;;;11.27;;
18879;SDS011;9572;52.378;13.404;2023-12-14T13:02:20;18.27;;;11.37;;
18879;SDS011;9572;52.378;13.404;2023-12-14T13:04:50;20.30;;;11.87;;
18879;SDS011;9572;52.378;13.404;2023-12-14T13:07:18;19.30;;;10.47;;
18879;SDS011;9572;52.378;13.404;2023-12-14T13:09:45;17.63;;;10.80;;
18879;SDS011;9572;52.378;13.404;2023-12-14T13:12:12;16.03;;;10.57;;
18879;SDS011;9572;52.378;13.404;2023-12-14T13:14:39;16.50;;;10.63;;
18879;SDS011;9572;52.378;13.404;2023-12-14T13:17:06;17.50;;;10.70;;
18879;SDS011;9572;52.378;13.404;2023-12-14T13:19:33;18.00;;;11.17;;
18879;SDS011;9572;52.378;13.404;2023-12-14T13:22:02;21.13;;;12.40;;
18879;SDS011;9572;52.378;13.404;2023-12-14T13:24:29;21.80;;;13.17;;
18879;SDS011;9572;52.378;13.404;2023-12-14T13:26:56;19.03;;;11.83;;
18879;SDS011;9572;52.378;13.404;2023-12-14T13:29:23;17.27;;;10.63;;
18879;SDS011;9572;52.378;13.404;2023-12-14T13:31:50;18.63;;;11.50;;
18879;SDS011;9572;52.378;13.404;2023-12-14T13:34:17;16.87;;;10.47;;
18879;SDS011;9572;52.378;13.404;2023-12-14T13:36:44;17.90;;;11.97;;
18879;SDS011;9572;52.378;13.404;2023-12-14T13:39:13;21.03;;;12.20;;
18879;SDS011;9572;52.378;13.404;2023-12-14T13:41:40;23.20;;;13.43;;
18879;SDS011;9572;52.378;13.404;2023-12-14T13:44:07;24.97;;;14.20;;
18879;SDS011;9572;52.378;13.404;2023-12-14T13:46:34;38.13;;;21.17;;
18879;SDS011;9572;52.378;13.404;2023-12-14T13:49:01;27.03;;;14.60;;
18879;SDS011;9572;52.378;13.404;2023-12-14T13:51:28;24.63;;;13.37;;
18879;SDS011;9572;52.378;13.404;2023-12-14T13:53:55;23.90;;;12.93;;
18879;SDS011;9572;52.378;13.404;2023-12-14T13:56:23;21.50;;;11.90;;
18879;SDS011;9572;52.378;13.404;2023-12-14T13:58:50;21.53;;;11.23;;
18879;SDS011;9572;52.378;13.404;2023-12-14T14:01:18;16.90;;;10.63;;
18879;SDS011;9572;52.378;13.404;2023-12-14T14:03:45;17.67;;;10.90;;
18879;SDS011;9572;52.378;13.404;2023-12-14T14:06:13;16.83;;;10.57;;
18879;SDS011;9572;52.378;13.404;2023-12-14T14:08:39;17.03;;;11.10;;
18879;SDS011;9572;52.378;13.404;2023-12-14T14:11:06;15.57;;;10.17;;
18879;SDS011;9572;52.378;13.404;2023-12-14T14:13:35;17.40;;;11.47;;
18879;SDS011;9572;52.378;13.404;2023-12-14T14:16:02;18.30;;;11.30;;
18879;SDS011;9572;52.378;13.404;2023-12-14T14:18:30;20.40;;;11.57;;
18879;SDS011;9572;52.378;13.404;2023-12-14T14:20:57;19.23;;;10.47;;
18879;SDS011;9572;52.378;13.404;2023-12-14T14:23:24;17.40;;;11.00;;
18879;SDS011;9572;52.378;13.404;2023-12-14T14:25:51;18.47;;;11.57;;
18879;SDS011;9572;52.378;13.404;2023-12-14T14:28:19;24.10;;;11.97;;
18879;SDS011;9572;52.378;13.404;2023-12-14T14:30:48;19.53;;;10.97;;
18879;SDS011;9572;52.378;13.404;2023-12-14T14:33:15;19.30;;;10.73;;
18879;SDS011;9572;52.378;13.404;2023-12-14T14:35:43;21.07;;;11.93;;
18879;SDS011;9572;52.378;13.404;2023-12-14T14:38:11;23.33;;;12.07;;
18879;SDS011;9572;52.378;13.404;2023-12-14T14:40:38;24.27;;;12.23;;
18879;SDS011;9572;52.378;13.404;2023-12-14T14:43:06;19.40;;;11.30;;
18879;SDS011;9572;52.378;13.404;2023-12-14T14:45:32;21.67;;;10.93;;
18879;SDS011;9572;52.378;13.404;2023-12-14T14:48:01;18.17;;;10.80;;
18879;SDS011;9572;52.378;13.404;2023-12-14T14:50:27;20.07;;;10.57;;
18879;SDS011;9572;52.378;13.404;2023-12-14T14:52:54;17.77;;;11.17;;